createdAt,value
2023-05-22T00:06:02.020Z,18.37
2023-05-22T04:41:29.287Z,0.00
2023-05-22T04:51:43.705Z,16.06
2023-05-22T05:01:54.840Z,16.06
2023-05-22T05:12:05.940Z,16.37
2023-05-22T05:22:16.631Z,16.52
2023-05-22T05:32:26.579Z,16.72
2023-05-22T05:42:38.713Z,16.87
2023-05-22T05:52:49.504Z,16.93
2023-05-22T06:02:59.754Z,16.95
2023-05-22T06:13:11.438Z,17.12
2023-05-22T06:23:22.806Z,17.12
2023-05-22T06:33:37.763Z,17.26
2023-05-22T06:43:49.556Z,17.51
2023-05-22T06:54:00.417Z,18.35
2023-05-22T07:04:12.347Z,18.66
2023-05-22T07:14:23.836Z,18.66
2023-05-22T07:24:33.655Z,19.05
2023-05-22T07:34:44.994Z,19.42
2023-05-22T07:44:55.148Z,19.77
2023-05-22T07:55:09.442Z,20.30
2023-05-22T08:05:25.514Z,22.90
2023-05-22T08:15:37.359Z,22.90
2023-05-22T08:25:48.003Z,24.91
2023-05-22T08:35:58.451Z,25.57
2023-05-22T08:46:08.674Z,25.48
2023-05-22T08:56:18.212Z,25.05
2023-05-22T09:06:27.604Z,24.73
2023-05-22T09:16:38.688Z,25.23
2023-05-22T09:26:48.257Z,25.02
2023-05-22T09:36:58.902Z,25.46
2023-05-22T09:47:08.548Z,25.46
2023-05-22T09:57:18.180Z,25.58
2023-05-22T10:07:27.998Z,25.70
2023-05-22T10:17:39.113Z,25.70
2023-05-22T10:27:50.389Z,26.48
2023-05-22T10:38:00.238Z,26.55
2023-05-22T10:48:10.992Z,26.65
2023-05-22T10:58:21.210Z,27.02
2023-05-22T11:08:31.914Z,26.67
2023-05-22T11:18:45.220Z,26.86
2023-05-22T11:28:56.945Z,26.55
2023-05-22T11:39:07.892Z,26.55
2023-05-22T11:49:19.266Z,26.95
2023-05-22T12:00:49.558Z,27.30
2023-05-22T12:10:58.751Z,26.91
2023-05-22T12:21:08.853Z,27.29
2023-05-22T12:31:19.561Z,28.80
2023-05-22T12:41:29.364Z,28.41
2023-05-22T12:51:41.128Z,28.77
2023-05-22T13:01:52.336Z,30.77
2023-05-22T13:12:04.653Z,31.53
2023-05-22T13:22:16.173Z,31.09
2023-05-22T13:32:26.474Z,31.81
2023-05-22T13:42:37.480Z,31.36
2023-05-22T13:52:47.930Z,31.20
2023-05-22T14:02:57.808Z,30.97
2023-05-22T14:13:08.380Z,29.88
2023-05-22T14:23:17.927Z,28.91
2023-05-22T14:33:27.603Z,28.47
2023-05-22T14:43:37.872Z,28.25
2023-05-22T14:53:47.407Z,27.63
2023-05-22T15:03:57.006Z,27.06
2023-05-22T15:14:06.747Z,26.67
2023-05-22T15:24:17.477Z,26.67
2023-05-22T15:34:27.076Z,26.66
2023-05-22T15:44:37.923Z,26.39
2023-05-22T15:54:47.809Z,26.33
2023-05-22T16:04:58.232Z,26.33
2023-05-22T16:15:08.909Z,25.42
2023-05-22T16:25:18.580Z,25.42
2023-05-22T16:35:28.626Z,25.21
2023-05-22T16:45:39.037Z,25.21
2023-05-22T16:55:50.447Z,24.50
2023-05-22T17:06:01.724Z,24.22
2023-05-22T17:16:11.684Z,24.00
2023-05-22T17:26:23.021Z,24.00
2023-05-22T17:36:34.021Z,23.76
2023-05-22T17:46:45.193Z,23.27
2023-05-22T17:56:55.961Z,23.08
2023-05-22T18:07:07.124Z,22.82
2023-05-22T18:17:16.801Z,22.60
2023-05-22T18:27:26.751Z,22.37
2023-05-22T18:37:39.887Z,22.05
2023-05-22T18:47:51.656Z,21.89
2023-05-22T18:58:02.032Z,21.59
2023-05-22T19:08:12.492Z,21.59
2023-05-22T19:18:24.378Z,21.09
2023-05-22T19:28:35.861Z,21.09
2023-05-22T19:38:46.254Z,20.62
2023-05-22T19:48:57.642Z,20.62
2023-05-22T19:59:09.086Z,20.52
2023-05-22T20:09:20.180Z,20.02
2023-05-22T20:19:31.321Z,20.02
2023-05-22T20:29:43.312Z,19.88
2023-05-22T20:39:55.246Z,19.71
2023-05-22T20:50:07.376Z,19.76
2023-05-22T21:00:18.372Z,19.38
2023-05-22T21:10:29.443Z,19.09
2023-05-22T21:20:39.503Z,18.95
2023-05-22T21:30:49.281Z,18.95
2023-05-22T21:41:00.037Z,18.81
2023-05-22T21:51:11.290Z,18.64
2023-05-22T22:01:22.706Z,18.52
2023-05-22T22:11:33.677Z,18.52
2023-05-22T22:21:44.694Z,18.47
2023-05-22T22:31:56.006Z,18.50
2023-05-22T22:42:06.793Z,18.39
2023-05-22T22:52:17.792Z,18.22
2023-05-22T23:02:29.354Z,18.22
2023-05-22T23:12:40.413Z,17.93
2023-05-22T23:22:50.576Z,17.93
2023-05-22T23:33:00.753Z,17.84
2023-05-22T23:43:15.193Z,17.43
2023-05-22T23:53:27.224Z,17.41
